PWSweather.com
Personal Weather Stations
Station Observations
IACHARNE2
Acharnes, AthensGR

AcharnesAthensGR

Lat: 38.054318, Lon: 23.443547

Elevation: 640

Station Type: ProWeatherStation

http://www.meteoacharnes.gr

High Low Average
Temperature 69.8°F21.0°F 53.2°F11.8°F 59.8°F15.4°F
Dew Point 55.3°F12.9°F 43.0°F6.1°F 50.4°F10.2°F
Winds 10.1 mph NE16.3 mph NE Calm Calm 3.7 mph 6.0 mph
Wind Gusts 23.5 mph37.8 mph 1.6 mph2.6 mph 9.9 mph15.9 mph
Humidity 94% 49% 73%
Pressure 30.03 in1016.90 in 29.93 in1013.50 in -
Precipitation 0.00 in0.00 in - -
Hour Temp Dew Point Humidity Winds Wind Gusts Pressure Precip Precip Rate Daily Precip Total
12:00 AM 57.0°F13.9°C 55.0°F12.8°C 93% 2.3 mph NNE3.7 kmh NNE 5.4 mph8.7 kmh 29.97 in1014.9 mb 0.00 in0.0 mm 0.00 in0.0 mm 0.00 in0.0 mm
12:05 AM 57.0°F13.9°C 55.0°F12.8°C 93% 2.1 mph NNE3.4 kmh NNE 4.5 mph7.2 kmh 29.96 in1014.6 mb 0.00 in0.0 mm 0.00 in0.0 mm 0.00 in0.0 mm
12:10 AM 56.8°F13.8°C 54.8°F12.7°C 93% 1.1 mph N1.8 kmh N 3.8 mph6.1 kmh 29.96 in1014.6 mb 0.00 in0.0 mm 0.00 in0.0 mm 0.00 in0.0 mm
12:15 AM 56.8°F13.8°C 54.8°F12.7°C 93% 0.6 mph N1.0 kmh N 3.1 mph5.0 kmh 29.96 in1014.6 mb 0.00 in0.0 mm 0.00 in0.0 mm 0.00 in0.0 mm
12:20 AM 56.8°F13.8°C 54.8°F12.7°C 93% 0.5 mph N0.8 kmh N 3.1 mph5.0 kmh 29.96 in1014.6 mb 0.00 in0.0 mm 0.00 in0.0 mm 0.00 in0.0 mm
12:25 AM 56.7°F13.7°C 54.7°F12.6°C 93% 0.9 mph N1.4 kmh N 3.1 mph5.0 kmh 29.96 in1014.6 mb 0.00 in0.0 mm 0.00 in0.0 mm 0.00 in0.0 mm
12:30 AM 56.7°F13.7°C 54.7°F12.6°C 93% 1.2 mph N1.9 kmh N 3.1 mph5.0 kmh 29.96 in1014.6 mb 0.00 in0.0 mm 0.00 in0.0 mm 0.00 in0.0 mm
12:35 AM 56.5°F13.6°C 54.5°F12.5°C 93% 1.2 mph N1.9 kmh N 3.1 mph5.0 kmh 29.96 in1014.6 mb 0.00 in0.0 mm 0.00 in0.0 mm 0.00 in0.0 mm
12:40 AM 56.5°F13.6°C 54.5°F12.5°C 93% 1.6 mph N2.6 kmh N 4.5 mph7.2 kmh 29.96 in1014.6 mb 0.00 in0.0 mm 0.00 in0.0 mm 0.00 in0.0 mm
12:45 AM 56.3°F13.5°C 54.3°F12.4°C 93% 1.0 mph N1.6 kmh N 4.5 mph7.2 kmh 29.96 in1014.6 mb 0.00 in0.0 mm 0.00 in0.0 mm 0.00 in0.0 mm
12:50 AM 56.1°F13.4°C 54.1°F12.3°C 93% 0.3 mph N0.5 kmh N 3.1 mph5.0 kmh 29.96 in1014.6 mb 0.00 in0.0 mm 0.00 in0.0 mm 0.00 in0.0 mm
12:55 AM 56.1°F13.4°C 54.1°F12.3°C 93% 0.3 mph NE0.5 kmh NE 3.1 mph5.0 kmh 29.96 in1014.6 mb 0.00 in0.0 mm 0.00 in0.0 mm 0.00 in0.0 mm
01:00 AM 55.6°F13.1°C 53.6°F12.0°C 93% 0.6 mph NE1.0 kmh NE 3.1 mph5.0 kmh 29.96 in1014.6 mb 0.00 in0.0 mm 0.00 in0.0 mm 0.00 in0.0 mm
01:05 AM 55.6°F13.1°C 53.6°F12.0°C 93% 0.8 mph NE1.3 kmh NE 3.8 mph6.1 kmh 29.96 in1014.6 mb 0.00 in0.0 mm 0.00 in0.0 mm 0.00 in0.0 mm
01:10 AM 55.2°F12.9°C 53.2°F11.8°C 93% 1.5 mph NE2.4 kmh NE 4.5 mph7.2 kmh 29.96 in1014.6 mb 0.00 in0.0 mm 0.00 in0.0 mm 0.00 in0.0 mm
01:15 AM 55.0°F12.8°C 53.1°F11.7°C 93% 2.2 mph NE3.5 kmh NE 5.4 mph8.7 kmh 29.96 in1014.6 mb 0.00 in0.0 mm 0.00 in0.0 mm 0.00 in0.0 mm
01:20 AM 54.9°F12.7°C 52.9°F11.6°C 93% 2.0 mph NE3.2 kmh NE 5.4 mph8.7 kmh 29.96 in1014.6 mb 0.00 in0.0 mm 0.00 in0.0 mm 0.00 in0.0 mm
01:25 AM 54.7°F12.6°C 52.7°F11.5°C 93% 1.9 mph NNE3.1 kmh NNE 4.5 mph7.2 kmh 29.95 in1014.2 mb 0.00 in0.0 mm 0.00 in0.0 mm 0.00 in0.0 mm
01:30 AM 54.3°F12.4°C 52.3°F11.3°C 93% 1.8 mph N2.9 kmh N 3.8 mph6.1 kmh 29.96 in1014.6 mb 0.00 in0.0 mm 0.00 in0.0 mm 0.00 in0.0 mm
01:35 AM 54.3°F12.4°C 52.3°F11.3°C 93% 1.4 mph N2.3 kmh N 3.8 mph6.1 kmh 29.96 in1014.6 mb 0.00 in0.0 mm 0.00 in0.0 mm 0.00 in0.0 mm
01:40 AM 54.5°F12.5°C 52.5°F11.4°C 93% 1.9 mph NNE3.1 kmh NNE 6.0 mph9.7 kmh 29.96 in1014.6 mb 0.00 in0.0 mm 0.00 in0.0 mm 0.00 in0.0 mm
01:45 AM 54.7°F12.6°C 53.0°F11.7°C 94% 2.9 mph NNE4.7 kmh NNE 6.0 mph9.7 kmh 29.96 in1014.6 mb 0.00 in0.0 mm 0.00 in0.0 mm 0.00 in0.0 mm
01:50 AM 54.7°F12.6°C 53.0°F11.7°C 94% 3.4 mph NE5.5 kmh NE 9.2 mph14.8 kmh 29.95 in1014.2 mb 0.00 in0.0 mm 0.00 in0.0 mm 0.00 in0.0 mm
01:55 AM 54.7°F12.6°C 53.0°F11.7°C 94% 3.4 mph NE5.5 kmh NE 9.2 mph14.8 kmh 29.95 in1014.2 mb 0.00 in0.0 mm 0.00 in0.0 mm 0.00 in0.0 mm
02:00 AM 54.9°F12.7°C 53.2°F11.8°C 94% 2.8 mph NNE4.5 kmh NNE 7.6 mph12.2 kmh 29.95 in1014.2 mb 0.00 in0.0 mm 0.00 in0.0 mm 0.00 in0.0 mm
02:05 AM 54.7°F12.6°C 53.0°F11.7°C 94% 2.1 mph N3.4 kmh N 5.4 mph8.7 kmh 29.95 in1014.2 mb 0.00 in0.0 mm 0.00 in0.0 mm 0.00 in0.0 mm
02:10 AM 54.7°F12.6°C 52.7°F11.5°C 93% 2.1 mph NNE3.4 kmh NNE 6.0 mph9.7 kmh 29.95 in1014.2 mb 0.00 in0.0 mm 0.00 in0.0 mm 0.00 in0.0 mm
02:15 AM 54.7°F12.6°C 52.7°F11.5°C 93% 2.7 mph N4.3 kmh N 6.0 mph9.7 kmh 29.95 in1014.2 mb 0.00 in0.0 mm 0.00 in0.0 mm 0.00 in0.0 mm
02:20 AM 54.5°F12.5°C 52.5°F11.4°C 93% 2.6 mph NNE4.2 kmh NNE 6.0 mph9.7 kmh 29.95 in1014.2 mb 0.00 in0.0 mm 0.00 in0.0 mm 0.00 in0.0 mm
02:25 AM 54.5°F12.5°C 52.8°F11.6°C 94% 2.8 mph NE4.5 kmh NE 8.3 mph13.4 kmh 29.95 in1014.2 mb 0.00 in0.0 mm 0.00 in0.0 mm 0.00 in0.0 mm
02:30 AM 55.0°F12.8°C 53.4°F11.9°C 94% 4.0 mph N6.4 kmh N 8.3 mph13.4 kmh 29.95 in1014.2 mb 0.00 in0.0 mm 0.00 in0.0 mm 0.00 in0.0 mm
02:35 AM 55.2°F12.9°C 53.5°F11.9°C 94% 4.4 mph N7.1 kmh N 9.2 mph14.8 kmh 29.95 in1014.2 mb 0.00 in0.0 mm 0.00 in0.0 mm 0.00 in0.0 mm
02:40 AM 55.2°F12.9°C 53.5°F11.9°C 94% 3.6 mph NE5.8 kmh NE 9.2 mph14.8 kmh 29.95 in1014.2 mb 0.00 in0.0 mm 0.00 in0.0 mm 0.00 in0.0 mm
02:45 AM 55.4°F13.0°C 53.7°F12.1°C 94% 3.6 mph NE5.8 kmh NE 9.2 mph14.8 kmh 29.94 in1013.9 mb 0.00 in0.0 mm 0.00 in0.0 mm 0.00 in0.0 mm
02:50 AM 55.4°F13.0°C 53.7°F12.1°C 94% 4.0 mph NNE6.4 kmh NNE 7.6 mph12.2 kmh 29.94 in1013.9 mb 0.00 in0.0 mm 0.00 in0.0 mm 0.00 in0.0 mm
02:55 AM 55.4°F13.0°C 53.4°F11.9°C 93% 3.8 mph NNE6.1 kmh NNE 8.3 mph13.4 kmh 29.94 in1013.9 mb 0.00 in0.0 mm 0.00 in0.0 mm 0.00 in0.0 mm
03:00 AM 55.2°F12.9°C 53.2°F11.8°C 93% 3.3 mph NE5.3 kmh NE 8.3 mph13.4 kmh 29.94 in1013.9 mb 0.00 in0.0 mm 0.00 in0.0 mm 0.00 in0.0 mm
03:05 AM 55.0°F12.8°C 53.1°F11.7°C 93% 2.6 mph NE4.2 kmh NE 6.9 mph11.1 kmh 29.94 in1013.9 mb 0.00 in0.0 mm 0.00 in0.0 mm 0.00 in0.0 mm
03:10 AM 55.0°F12.8°C 53.1°F11.7°C 93% 3.0 mph NE4.8 kmh NE 8.3 mph13.4 kmh 29.94 in1013.9 mb 0.00 in0.0 mm 0.00 in0.0 mm 0.00 in0.0 mm
03:15 AM 54.9°F12.7°C 52.9°F11.6°C 93% 4.1 mph NE6.6 kmh NE 8.3 mph13.4 kmh 29.94 in1013.9 mb 0.00 in0.0 mm 0.00 in0.0 mm 0.00 in0.0 mm
03:20 AM 54.9°F12.7°C 52.9°F11.6°C 93% 4.0 mph NE6.4 kmh NE 8.3 mph13.4 kmh 29.94 in1013.9 mb 0.00 in0.0 mm 0.00 in0.0 mm 0.00 in0.0 mm
03:25 AM 54.5°F12.5°C 52.5°F11.4°C 93% 3.6 mph NE5.8 kmh NE 8.3 mph13.4 kmh 29.93 in1013.5 mb 0.00 in0.0 mm 0.00 in0.0 mm 0.00 in0.0 mm
03:30 AM 54.3°F12.4°C 52.6°F11.4°C 94% 3.3 mph NE5.3 kmh NE 6.9 mph11.1 kmh 29.93 in1013.5 mb 0.00 in0.0 mm 0.00 in0.0 mm 0.00 in0.0 mm
03:35 AM 54.3°F12.4°C 52.6°F11.4°C 94% 3.1 mph NE5.0 kmh NE 6.9 mph11.1 kmh 29.93 in1013.5 mb 0.00 in0.0 mm 0.00 in0.0 mm 0.00 in0.0 mm
03:40 AM 54.3°F12.4°C 52.6°F11.4°C 94% 3.1 mph NNE5.0 kmh NNE 6.9 mph11.1 kmh 29.93 in1013.5 mb 0.00 in0.0 mm 0.00 in0.0 mm 0.00 in0.0 mm
03:45 AM 54.3°F12.4°C 52.6°F11.4°C 94% 2.3 mph NNE3.7 kmh NNE 6.0 mph9.7 kmh 29.93 in1013.5 mb 0.00 in0.0 mm 0.00 in0.0 mm 0.00 in0.0 mm
03:50 AM 54.3°F12.4°C 52.6°F11.4°C 94% 1.1 mph NE1.8 kmh NE 3.8 mph6.1 kmh 29.93 in1013.5 mb 0.00 in0.0 mm 0.00 in0.0 mm 0.00 in0.0 mm
03:55 AM 54.3°F12.4°C 52.6°F11.4°C 94% 1.4 mph NE2.3 kmh NE 3.8 mph6.1 kmh 29.93 in1013.5 mb 0.00 in0.0 mm 0.00 in0.0 mm 0.00 in0.0 mm
04:00 AM 54.3°F12.4°C 52.6°F11.4°C 94% 1.1 mph NE1.8 kmh NE 3.8 mph6.1 kmh 29.93 in1013.5 mb 0.00 in0.0 mm 0.00 in0.0 mm 0.00 in0.0 mm
04:05 AM 54.3°F12.4°C 52.6°F11.4°C 94% 0.3 mph NE0.5 kmh NE 3.1 mph5.0 kmh 29.93 in1013.5 mb 0.00 in0.0 mm 0.00 in0.0 mm 0.00 in0.0 mm
04:10 AM 54.5°F12.5°C 52.8°F11.6°C 94% 0.8 mph NE1.3 kmh NE 4.5 mph7.2 kmh 29.93 in1013.5 mb 0.00 in0.0 mm 0.00 in0.0 mm 0.00 in0.0 mm
04:15 AM 54.7°F12.6°C 53.0°F11.7°C 94% 1.3 mph ENE2.1 kmh ENE 5.4 mph8.7 kmh 29.93 in1013.5 mb 0.00 in0.0 mm 0.00 in0.0 mm 0.00 in0.0 mm
04:20 AM 54.9°F12.7°C 52.9°F11.6°C 93% 1.5 mph NE2.4 kmh NE 5.4 mph8.7 kmh 29.93 in1013.5 mb 0.00 in0.0 mm 0.00 in0.0 mm 0.00 in0.0 mm
04:25 AM 55.2°F12.9°C 53.2°F11.8°C 93% 2.2 mph NNE3.5 kmh NNE 7.6 mph12.2 kmh 29.93 in1013.5 mb 0.00 in0.0 mm 0.00 in0.0 mm 0.00 in0.0 mm
04:30 AM 55.4°F13.0°C 53.1°F11.7°C 92% 3.3 mph NE5.3 kmh NE 7.6 mph12.2 kmh 29.93 in1013.5 mb 0.00 in0.0 mm 0.00 in0.0 mm 0.00 in0.0 mm
04:35 AM 55.4°F13.0°C 53.1°F11.7°C 92% 3.5 mph NE5.6 kmh NE 7.6 mph12.2 kmh 29.93 in1013.5 mb 0.00 in0.0 mm 0.00 in0.0 mm 0.00 in0.0 mm
04:40 AM 55.4°F13.0°C 52.8°F11.6°C 91% 3.5 mph NE5.6 kmh NE 7.6 mph12.2 kmh 29.93 in1013.5 mb 0.00 in0.0 mm 0.00 in0.0 mm 0.00 in0.0 mm
04:45 AM 55.0°F12.8°C 52.5°F11.4°C 91% 3.0 mph NE4.8 kmh NE 7.6 mph12.2 kmh 29.93 in1013.5 mb 0.00 in0.0 mm 0.00 in0.0 mm 0.00 in0.0 mm
04:50 AM 55.0°F12.8°C 52.2°F11.2°C 90% 1.5 mph NNE2.4 kmh NNE 6.0 mph9.7 kmh 29.93 in1013.5 mb 0.00 in0.0 mm 0.00 in0.0 mm 0.00 in0.0 mm
04:55 AM 54.5°F12.5°C 51.6°F10.9°C 90% 0.5 mph NE0.8 kmh NE 3.8 mph6.1 kmh 29.93 in1013.5 mb 0.00 in0.0 mm 0.00 in0.0 mm 0.00 in0.0 mm
05:00 AM 54.3°F12.4°C 51.8°F11.0°C 91% 0.2 mph NE0.3 kmh NE 3.1 mph5.0 kmh 29.93 in1013.5 mb 0.00 in0.0 mm 0.00 in0.0 mm 0.00 in0.0 mm
05:05 AM 54.1°F12.3°C 51.6°F10.9°C 91% 0.2 mph NE0.3 kmh NE 3.1 mph5.0 kmh 29.93 in1013.5 mb 0.00 in0.0 mm 0.00 in0.0 mm 0.00 in0.0 mm
05:10 AM 54.1°F12.3°C 51.6°F10.9°C 91% 0.1 mph NE0.2 kmh NE 1.6 mph2.6 kmh 29.93 in1013.5 mb 0.00 in0.0 mm 0.00 in0.0 mm 0.00 in0.0 mm
05:15 AM 54.0°F12.2°C 51.4°F10.8°C 91% 0.2 mph NNE0.3 kmh NNE 2.2 mph3.5 kmh 29.93 in1013.5 mb 0.00 in0.0 mm 0.00 in0.0 mm 0.00 in0.0 mm
05:20 AM 53.8°F12.1°C 51.5°F10.8°C 92% 0.3 mph N0.5 kmh N 2.2 mph3.5 kmh 29.93 in1013.5 mb 0.00 in0.0 mm 0.00 in0.0 mm 0.00 in0.0 mm
05:25 AM 53.8°F12.1°C 51.5°F10.8°C 92% 0.3 mph N0.5 kmh N 3.8 mph6.1 kmh 29.93 in1013.5 mb 0.00 in0.0 mm 0.00 in0.0 mm 0.00 in0.0 mm
05:30 AM 53.8°F12.1°C 51.5°F10.8°C 92% 1.3 mph NNE2.1 kmh NNE 4.5 mph7.2 kmh 29.93 in1013.5 mb 0.00 in0.0 mm 0.00 in0.0 mm 0.00 in0.0 mm
05:35 AM 53.6°F12.0°C 51.6°F10.9°C 93% 2.7 mph NE4.3 kmh NE 6.9 mph11.1 kmh 29.93 in1013.5 mb 0.00 in0.0 mm 0.00 in0.0 mm 0.00 in0.0 mm
05:40 AM 53.8°F12.1°C 51.8°F11.0°C 93% 2.8 mph NE4.5 kmh NE 6.9 mph11.1 kmh 29.93 in1013.5 mb 0.00 in0.0 mm 0.00 in0.0 mm 0.00 in0.0 mm
05:45 AM 53.8°F12.1°C 51.8°F11.0°C 93% 2.3 mph NE3.7 kmh NE 6.0 mph9.7 kmh 29.93 in1013.5 mb 0.00 in0.0 mm 0.00 in0.0 mm 0.00 in0.0 mm
05:50 AM 54.0°F12.2°C 52.0°F11.1°C 93% 2.0 mph ENE3.2 kmh ENE 5.4 mph8.7 kmh 29.93 in1013.5 mb 0.00 in0.0 mm 0.00 in0.0 mm 0.00 in0.0 mm
05:55 AM 54.0°F12.2°C 52.0°F11.1°C 93% 1.0 mph ENE1.6 kmh ENE 5.4 mph8.7 kmh 29.93 in1013.5 mb 0.00 in0.0 mm 0.00 in0.0 mm 0.00 in0.0 mm
06:00 AM 54.1°F12.3°C 52.2°F11.2°C 93% 0.2 mph NE0.3 kmh NE 3.1 mph5.0 kmh 29.93 in1013.5 mb 0.00 in0.0 mm 0.00 in0.0 mm 0.00 in0.0 mm
06:05 AM 54.0°F12.2°C 52.0°F11.1°C 93% 0.5 mph N0.8 kmh N 3.8 mph6.1 kmh 29.93 in1013.5 mb 0.00 in0.0 mm 0.00 in0.0 mm 0.00 in0.0 mm
06:10 AM 53.8°F12.1°C 51.5°F10.8°C 92% 0.5 mph N0.8 kmh N 3.8 mph6.1 kmh 29.94 in1013.9 mb 0.00 in0.0 mm 0.00 in0.0 mm 0.00 in0.0 mm
06:15 AM 53.8°F12.1°C 51.5°F10.8°C 92% Calm Calm 2.2 mph3.5 kmh 29.94 in1013.9 mb 0.00 in0.0 mm 0.00 in0.0 mm 0.00 in0.0 mm
06:20 AM 53.8°F12.1°C 51.5°F10.8°C 92% 0.3 mph N0.5 kmh N 4.5 mph7.2 kmh 29.94 in1013.9 mb 0.00 in0.0 mm 0.00 in0.0 mm 0.00 in0.0 mm
06:25 AM 53.8°F12.1°C 51.5°F10.8°C 92% 0.7 mph NE1.1 kmh NE 4.5 mph7.2 kmh 29.95 in1014.2 mb 0.00 in0.0 mm 0.00 in0.0 mm 0.00 in0.0 mm
06:30 AM 53.6°F12.0°C 51.3°F10.7°C 92% 0.6 mph NNE1.0 kmh NNE 4.5 mph7.2 kmh 29.94 in1013.9 mb 0.00 in0.0 mm 0.00 in0.0 mm 0.00 in0.0 mm
06:35 AM 53.6°F12.0°C 51.3°F10.7°C 92% 0.2 mph NW0.3 kmh NW 2.2 mph3.5 kmh 29.94 in1013.9 mb 0.00 in0.0 mm 0.00 in0.0 mm 0.00 in0.0 mm
06:40 AM 53.4°F11.9°C 51.2°F10.7°C 92% Calm Calm 1.6 mph2.6 kmh 29.94 in1013.9 mb 0.00 in0.0 mm 0.00 in0.0 mm 0.00 in0.0 mm
06:45 AM 53.4°F11.9°C 50.9°F10.5°C 91% Calm Calm 2.2 mph3.5 kmh 29.94 in1013.9 mb 0.00 in0.0 mm 0.00 in0.0 mm 0.00 in0.0 mm
06:50 AM 53.4°F11.9°C 50.9°F10.5°C 91% Calm Calm 2.2 mph3.5 kmh 29.94 in1013.9 mb 0.00 in0.0 mm 0.00 in0.0 mm 0.00 in0.0 mm
06:55 AM 53.6°F12.0°C 51.0°F10.6°C 91% Calm Calm 1.6 mph2.6 kmh 29.94 in1013.9 mb 0.00 in0.0 mm 0.00 in0.0 mm 0.00 in0.0 mm
07:00 AM 53.8°F12.1°C 51.2°F10.7°C 91% Calm Calm 2.2 mph3.5 kmh 29.94 in1013.9 mb 0.00 in0.0 mm 0.00 in0.0 mm 0.00 in0.0 mm
07:05 AM 53.8°F12.1°C 51.2°F10.7°C 91% 0.1 mph NNE0.2 kmh NNE 3.1 mph5.0 kmh 29.94 in1013.9 mb 0.00 in0.0 mm 0.00 in0.0 mm 0.00 in0.0 mm
07:10 AM 54.0°F12.2°C 51.1°F10.6°C 90% 0.8 mph NE1.3 kmh NE 5.4 mph8.7 kmh 29.94 in1013.9 mb 0.00 in0.0 mm 0.00 in0.0 mm 0.00 in0.0 mm
07:15 AM 54.3°F12.4°C 51.5°F10.8°C 90% 2.2 mph NE3.5 kmh NE 6.9 mph11.1 kmh 29.95 in1014.2 mb 0.00 in0.0 mm 0.00 in0.0 mm 0.00 in0.0 mm
07:20 AM 54.5°F12.5°C 51.3°F10.7°C 89% 2.8 mph NE4.5 kmh NE 6.9 mph11.1 kmh 29.95 in1014.2 mb 0.00 in0.0 mm 0.00 in0.0 mm 0.00 in0.0 mm
07:25 AM 54.7°F12.6°C 51.5°F10.8°C 89% 2.4 mph NE3.9 kmh NE 6.9 mph11.1 kmh 29.94 in1013.9 mb 0.00 in0.0 mm 0.00 in0.0 mm 0.00 in0.0 mm
07:30 AM 54.9°F12.7°C 51.4°F10.8°C 88% 3.4 mph NE5.5 kmh NE 8.3 mph13.4 kmh 29.94 in1013.9 mb 0.00 in0.0 mm 0.00 in0.0 mm 0.00 in0.0 mm
07:35 AM 54.9°F12.7°C 51.4°F10.8°C 88% 4.1 mph ENE6.6 kmh ENE 9.8 mph15.8 kmh 29.94 in1013.9 mb 0.00 in0.0 mm 0.00 in0.0 mm 0.00 in0.0 mm
07:40 AM 54.9°F12.7°C 51.4°F10.8°C 88% 2.2 mph NE3.5 kmh NE 9.8 mph15.8 kmh 29.94 in1013.9 mb 0.00 in0.0 mm 0.00 in0.0 mm 0.00 in0.0 mm
07:45 AM 55.0°F12.8°C 51.2°F10.7°C 87% 0.6 mph NW1.0 kmh NW 5.4 mph8.7 kmh 29.95 in1014.2 mb 0.00 in0.0 mm 0.00 in0.0 mm 0.00 in0.0 mm
07:50 AM 55.0°F12.8°C 51.2°F10.7°C 87% 0.3 mph WSW0.5 kmh WSW 3.1 mph5.0 kmh 29.95 in1014.2 mb 0.00 in0.0 mm 0.00 in0.0 mm 0.00 in0.0 mm
07:55 AM 55.2°F12.9°C 51.4°F10.8°C 87% 0.2 mph NW0.3 kmh NW 2.2 mph3.5 kmh 29.95 in1014.2 mb 0.00 in0.0 mm 0.00 in0.0 mm 0.00 in0.0 mm
08:00 AM 55.6°F13.1°C 51.8°F11.0°C 87% 0.3 mph NNW0.5 kmh NNW 3.8 mph6.1 kmh 29.95 in1014.2 mb 0.00 in0.0 mm 0.00 in0.0 mm 0.00 in0.0 mm
08:05 AM 55.6°F13.1°C 51.5°F10.8°C 86% 0.8 mph NE1.3 kmh NE 3.8 mph6.1 kmh 29.95 in1014.2 mb 0.00 in0.0 mm 0.00 in0.0 mm 0.00 in0.0 mm
08:10 AM 55.8°F13.2°C 51.6°F10.9°C 86% 1.9 mph NE3.1 kmh NE 6.0 mph9.7 kmh 29.95 in1014.2 mb 0.00 in0.0 mm 0.00 in0.0 mm 0.00 in0.0 mm
08:15 AM 56.1°F13.4°C 51.7°F10.9°C 85% 1.9 mph NE3.1 kmh NE 6.0 mph9.7 kmh 29.95 in1014.2 mb 0.00 in0.0 mm 0.00 in0.0 mm 0.00 in0.0 mm
08:20 AM 56.3°F13.5°C 51.9°F11.1°C 85% 1.8 mph NE2.9 kmh NE 6.0 mph9.7 kmh 29.95 in1014.2 mb 0.00 in0.0 mm 0.00 in0.0 mm 0.00 in0.0 mm
08:25 AM 56.7°F13.7°C 51.9°F11.1°C 84% 2.1 mph NE3.4 kmh NE 6.0 mph9.7 kmh 29.95 in1014.2 mb 0.00 in0.0 mm 0.00 in0.0 mm 0.00 in0.0 mm
08:30 AM 56.7°F13.7°C 51.6°F10.9°C 83% 2.0 mph NE3.2 kmh NE 6.0 mph9.7 kmh 29.95 in1014.2 mb 0.00 in0.0 mm 0.00 in0.0 mm 0.00 in0.0 mm
08:35 AM 57.0°F13.9°C 51.9°F11.1°C 83% 1.5 mph NNE2.4 kmh NNE 3.8 mph6.1 kmh 29.95 in1014.2 mb 0.00 in0.0 mm 0.00 in0.0 mm 0.00 in0.0 mm
08:40 AM 57.4°F14.1°C 52.3°F11.3°C 83% 0.9 mph NE1.4 kmh NE 3.8 mph6.1 kmh 29.95 in1014.2 mb 0.00 in0.0 mm 0.00 in0.0 mm 0.00 in0.0 mm
08:45 AM 57.4°F14.1°C 51.9°F11.1°C 82% 0.9 mph NE1.4 kmh NE 4.5 mph7.2 kmh 29.95 in1014.2 mb 0.00 in0.0 mm 0.00 in0.0 mm 0.00 in0.0 mm
08:50 AM 57.6°F14.2°C 52.1°F11.2°C 82% 1.3 mph N2.1 kmh N 6.0 mph9.7 kmh 29.95 in1014.2 mb 0.00 in0.0 mm 0.00 in0.0 mm 0.00 in0.0 mm
08:55 AM 57.6°F14.2°C 52.1°F11.2°C 82% 2.1 mph NE3.4 kmh NE 6.9 mph11.1 kmh 29.95 in1014.2 mb 0.00 in0.0 mm 0.00 in0.0 mm 0.00 in0.0 mm
09:00 AM 57.9°F14.4°C 52.1°F11.2°C 81% 2.3 mph NNE3.7 kmh NNE 6.9 mph11.1 kmh 29.95 in1014.2 mb 0.00 in0.0 mm 0.00 in0.0 mm 0.00 in0.0 mm
09:05 AM 58.1°F14.5°C 52.6°F11.4°C 82% 1.8 mph N2.9 kmh N 6.0 mph9.7 kmh 29.95 in1014.2 mb 0.00 in0.0 mm 0.00 in0.0 mm 0.00 in0.0 mm
09:10 AM 58.1°F14.5°C 52.3°F11.3°C 81% 2.0 mph E3.2 kmh E 6.0 mph9.7 kmh 29.95 in1014.2 mb 0.00 in0.0 mm 0.00 in0.0 mm 0.00 in0.0 mm
09:15 AM 58.5°F14.7°C 52.7°F11.5°C 81% 2.0 mph SE3.2 kmh SE 6.0 mph9.7 kmh 29.95 in1014.2 mb 0.00 in0.0 mm 0.00 in0.0 mm 0.00 in0.0 mm
09:20 AM 58.6°F14.8°C 52.8°F11.6°C 81% 1.9 mph E3.1 kmh E 6.9 mph11.1 kmh 29.95 in1014.2 mb 0.00 in0.0 mm 0.00 in0.0 mm 0.00 in0.0 mm
09:25 AM 58.8°F14.9°C 53.0°F11.7°C 81% 2.1 mph E3.4 kmh E 6.9 mph11.1 kmh 29.95 in1014.2 mb 0.00 in0.0 mm 0.00 in0.0 mm 0.00 in0.0 mm
09:30 AM 59.2°F15.1°C 53.4°F11.9°C 81% 1.8 mph ENE2.9 kmh ENE 5.4 mph8.7 kmh 29.95 in1014.2 mb 0.00 in0.0 mm 0.00 in0.0 mm 0.00 in0.0 mm
09:35 AM 59.2°F15.1°C 53.0°F11.7°C 80% 1.9 mph ESE3.1 kmh ESE 4.5 mph7.2 kmh 29.95 in1014.2 mb 0.00 in0.0 mm 0.00 in0.0 mm 0.00 in0.0 mm
09:40 AM 59.4°F15.2°C 53.2°F11.8°C 80% 2.0 mph ESE3.2 kmh ESE 4.5 mph7.2 kmh 29.95 in1014.2 mb 0.00 in0.0 mm 0.00 in0.0 mm 0.00 in0.0 mm
09:45 AM 59.4°F15.2°C 53.2°F11.8°C 80% 1.4 mph ESE2.3 kmh ESE 4.5 mph7.2 kmh 29.96 in1014.6 mb 0.00 in0.0 mm 0.00 in0.0 mm 0.00 in0.0 mm
09:50 AM 59.7°F15.4°C 53.6°F12.0°C 80% 1.0 mph E1.6 kmh E 5.4 mph8.7 kmh 29.96 in1014.6 mb 0.00 in0.0 mm 0.00 in0.0 mm 0.00 in0.0 mm
09:55 AM 60.3°F15.7°C 54.1°F12.3°C 80% 1.1 mph NNE1.8 kmh NNE 5.4 mph8.7 kmh 29.96 in1014.6 mb 0.00 in0.0 mm 0.00 in0.0 mm 0.00 in0.0 mm
10:00 AM 60.6°F15.9°C 54.1°F12.3°C 79% 1.3 mph E2.1 kmh E 5.4 mph8.7 kmh 29.95 in1014.2 mb 0.00 in0.0 mm 0.00 in0.0 mm 0.00 in0.0 mm
10:05 AM 61.5°F16.4°C 55.0°F12.8°C 79% 0.9 mph SSE1.4 kmh SSE 3.8 mph6.1 kmh 29.95 in1014.2 mb 0.00 in0.0 mm 0.00 in0.0 mm 0.00 in0.0 mm
10:10 AM 62.1°F16.7°C 55.1°F12.8°C 78% 1.0 mph WSW1.6 kmh WSW 5.4 mph8.7 kmh 29.95 in1014.2 mb 0.00 in0.0 mm 0.00 in0.0 mm 0.00 in0.0 mm
10:15 AM 63.0°F17.2°C 55.3°F12.9°C 76% 2.8 mph SE4.5 kmh SE 12.1 mph19.5 kmh 29.95 in1014.2 mb 0.00 in0.0 mm 0.00 in0.0 mm 0.00 in0.0 mm
10:20 AM 63.3°F17.4°C 54.5°F12.5°C 73% 4.5 mph E7.2 kmh E 12.1 mph19.5 kmh 29.95 in1014.2 mb 0.00 in0.0 mm 0.00 in0.0 mm 0.00 in0.0 mm
10:25 AM 63.3°F17.4°C 54.2°F12.3°C 72% 4.2 mph NE6.8 kmh NE 12.1 mph19.5 kmh 29.95 in1014.2 mb 0.00 in0.0 mm 0.00 in0.0 mm 0.00 in0.0 mm
10:30 AM 63.3°F17.4°C 54.2°F12.3°C 72% 3.3 mph NE5.3 kmh NE 9.8 mph15.8 kmh 29.95 in1014.2 mb 0.00 in0.0 mm 0.00 in0.0 mm 0.00 in0.0 mm
10:35 AM 63.1°F17.3°C 53.2°F11.8°C 70% 2.6 mph N4.2 kmh N 9.8 mph15.8 kmh 29.95 in1014.2 mb 0.00 in0.0 mm 0.00 in0.0 mm 0.00 in0.0 mm
10:40 AM 64.2°F17.9°C 53.9°F12.2°C 69% 2.4 mph N3.9 kmh N 9.8 mph15.8 kmh 29.95 in1014.2 mb 0.00 in0.0 mm 0.00 in0.0 mm 0.00 in0.0 mm
10:45 AM 64.6°F18.1°C 54.2°F12.3°C 69% 3.9 mph N6.3 kmh N 10.7 mph17.2 kmh 29.95 in1014.2 mb 0.00 in0.0 mm 0.00 in0.0 mm 0.00 in0.0 mm
10:50 AM 65.3°F18.5°C 53.7°F12.1°C 66% 4.6 mph N7.4 kmh N 10.7 mph17.2 kmh 29.95 in1014.2 mb 0.00 in0.0 mm 0.00 in0.0 mm 0.00 in0.0 mm
10:55 AM 66.6°F19.2°C 53.2°F11.8°C 62% 5.0 mph NNE8.0 kmh NNE 13.6 mph21.9 kmh 29.95 in1014.2 mb 0.00 in0.0 mm 0.00 in0.0 mm 0.00 in0.0 mm
11:00 AM 67.5°F19.7°C 52.7°F11.5°C 59% 6.1 mph NE9.8 kmh NE 15.2 mph24.5 kmh 29.95 in1014.2 mb 0.00 in0.0 mm 0.00 in0.0 mm 0.00 in0.0 mm
11:05 AM 68.0°F20.0°C 51.7°F10.9°C 56% 7.4 mph NE11.9 kmh NE 16.8 mph27.0 kmh 29.95 in1014.2 mb 0.00 in0.0 mm 0.00 in0.0 mm 0.00 in0.0 mm
11:10 AM 68.0°F20.0°C 51.3°F10.7°C 55% 8.5 mph NE13.7 kmh NE 19.0 mph30.6 kmh 29.95 in1014.2 mb 0.00 in0.0 mm 0.00 in0.0 mm 0.00 in0.0 mm
11:15 AM 67.8°F19.9°C 51.1°F10.6°C 55% 8.5 mph NNE13.7 kmh NNE 19.0 mph30.6 kmh 29.95 in1014.2 mb 0.00 in0.0 mm 0.00 in0.0 mm 0.00 in0.0 mm
11:20 AM 67.6°F19.8°C 51.4°F10.8°C 56% 7.4 mph NNE11.9 kmh NNE 19.0 mph30.6 kmh 29.95 in1014.2 mb 0.00 in0.0 mm 0.00 in0.0 mm 0.00 in0.0 mm
11:25 AM 67.3°F19.6°C 51.1°F10.6°C 56% 7.0 mph NNE11.3 kmh NNE 21.3 mph34.3 kmh 29.95 in1014.2 mb 0.00 in0.0 mm 0.00 in0.0 mm 0.00 in0.0 mm
11:30 AM 67.3°F19.6°C 51.1°F10.6°C 56% 7.4 mph NNW11.9 kmh NNW 21.3 mph34.3 kmh 29.96 in1014.6 mb 0.00 in0.0 mm 0.00 in0.0 mm 0.00 in0.0 mm
11:35 AM 66.7°F19.3°C 51.0°F10.6°C 57% 8.5 mph N13.7 kmh N 19.0 mph30.6 kmh 29.95 in1014.2 mb 0.00 in0.0 mm 0.00 in0.0 mm 0.00 in0.0 mm
11:40 AM 66.6°F19.2°C 51.3°F10.7°C 58% 9.5 mph NE15.3 kmh NE 19.7 mph31.7 kmh 29.95 in1014.2 mb 0.00 in0.0 mm 0.00 in0.0 mm 0.00 in0.0 mm
11:45 AM 66.7°F19.3°C 51.5°F10.8°C 58% 8.7 mph NE14.0 kmh NE 22.1 mph35.6 kmh 29.95 in1014.2 mb 0.00 in0.0 mm 0.00 in0.0 mm 0.00 in0.0 mm
11:50 AM 66.7°F19.3°C 51.5°F10.8°C 58% 8.1 mph NE13.0 kmh NE 22.1 mph35.6 kmh 29.96 in1014.6 mb 0.00 in0.0 mm 0.00 in0.0 mm 0.00 in0.0 mm
11:55 AM 66.9°F19.4°C 51.7°F10.9°C 58% 6.8 mph NE10.9 kmh NE 19.0 mph30.6 kmh 29.96 in1014.6 mb 0.00 in0.0 mm 0.00 in0.0 mm 0.00 in0.0 mm
12:00 PM 67.1°F19.5°C 51.9°F11.1°C 58% 6.8 mph NE10.9 kmh NE 16.8 mph27.0 kmh 29.96 in1014.6 mb 0.00 in0.0 mm 0.00 in0.0 mm 0.00 in0.0 mm
12:05 PM 66.6°F19.2°C 51.8°F11.0°C 59% 9.2 mph NNE14.8 kmh NNE 19.7 mph31.7 kmh 29.96 in1014.6 mb 0.00 in0.0 mm 0.00 in0.0 mm 0.00 in0.0 mm
12:10 PM 66.2°F19.0°C 51.5°F10.8°C 59% 10.1 mph NE16.3 kmh NE 20.6 mph33.2 kmh 29.95 in1014.2 mb 0.00 in0.0 mm 0.00 in0.0 mm 0.00 in0.0 mm
12:15 PM 66.7°F19.3°C 52.4°F11.3°C 60% 8.8 mph NE14.2 kmh NE 20.6 mph33.2 kmh 29.95 in1014.2 mb 0.00 in0.0 mm 0.00 in0.0 mm 0.00 in0.0 mm
12:20 PM 67.1°F19.5°C 52.8°F11.6°C 60% 8.3 mph N13.4 kmh N 18.3 mph29.5 kmh 29.95 in1014.2 mb 0.00 in0.0 mm 0.00 in0.0 mm 0.00 in0.0 mm
12:25 PM 67.1°F19.5°C 52.8°F11.6°C 60% 8.8 mph NNW14.2 kmh NNW 18.3 mph29.5 kmh 29.96 in1014.6 mb 0.00 in0.0 mm 0.00 in0.0 mm 0.00 in0.0 mm
12:30 PM 67.5°F19.7°C 53.1°F11.7°C 60% 7.7 mph NNE12.4 kmh NNE 17.4 mph28.0 kmh 29.96 in1014.6 mb 0.00 in0.0 mm 0.00 in0.0 mm 0.00 in0.0 mm
12:35 PM 67.8°F19.9°C 53.0°F11.7°C 59% 7.7 mph NE12.4 kmh NE 17.4 mph28.0 kmh 29.96 in1014.6 mb 0.00 in0.0 mm 0.00 in0.0 mm 0.00 in0.0 mm
12:40 PM 67.6°F19.8°C 52.4°F11.3°C 58% 8.5 mph NE13.7 kmh NE 17.4 mph28.0 kmh 29.96 in1014.6 mb 0.00 in0.0 mm 0.00 in0.0 mm 0.00 in0.0 mm
12:45 PM 67.6°F19.8°C 52.8°F11.6°C 59% 7.3 mph NE11.7 kmh NE 17.4 mph28.0 kmh 29.95 in1014.2 mb 0.00 in0.0 mm 0.00 in0.0 mm 0.00 in0.0 mm
12:50 PM 68.0°F20.0°C 53.6°F12.0°C 60% 5.6 mph NE9.0 kmh NE 14.5 mph23.3 kmh 29.96 in1014.6 mb 0.00 in0.0 mm 0.00 in0.0 mm 0.00 in0.0 mm
12:55 PM 68.2°F20.1°C 52.9°F11.6°C 58% 6.4 mph NE10.3 kmh NE 14.5 mph23.3 kmh 29.96 in1014.6 mb 0.00 in0.0 mm 0.00 in0.0 mm 0.00 in0.0 mm
01:00 PM 68.7°F20.4°C 52.9°F11.6°C 57% 5.9 mph NE9.5 kmh NE 15.2 mph24.5 kmh 29.96 in1014.6 mb 0.00 in0.0 mm 0.00 in0.0 mm 0.00 in0.0 mm
01:05 PM 68.7°F20.4°C 52.4°F11.3°C 56% 6.3 mph NE10.1 kmh NE 16.8 mph27.0 kmh 29.96 in1014.6 mb 0.00 in0.0 mm 0.00 in0.0 mm 0.00 in0.0 mm
01:10 PM 68.7°F20.4°C 52.4°F11.3°C 56% 8.9 mph NE14.3 kmh NE 21.3 mph34.3 kmh 29.96 in1014.6 mb 0.00 in0.0 mm 0.00 in0.0 mm 0.00 in0.0 mm
01:15 PM 68.7°F20.4°C 51.9°F11.1°C 55% 7.5 mph NE12.1 kmh NE 21.3 mph34.3 kmh 29.95 in1014.2 mb 0.00 in0.0 mm 0.00 in0.0 mm 0.00 in0.0 mm
01:20 PM 69.1°F20.6°C 51.3°F10.7°C 53% 6.3 mph NE10.1 kmh NE 19.7 mph31.7 kmh 29.95 in1014.2 mb 0.00 in0.0 mm 0.00 in0.0 mm 0.00 in0.0 mm
01:25 PM 68.9°F20.5°C 51.1°F10.6°C 53% 8.5 mph NNE13.7 kmh NNE 19.7 mph31.7 kmh 29.95 in1014.2 mb 0.00 in0.0 mm 0.00 in0.0 mm 0.00 in0.0 mm
01:30 PM 68.9°F20.5°C 52.1°F11.2°C 55% 8.4 mph NE13.5 kmh NE 17.4 mph28.0 kmh 29.95 in1014.2 mb 0.00 in0.0 mm 0.00 in0.0 mm 0.00 in0.0 mm
01:35 PM 68.9°F20.5°C 51.6°F10.9°C 54% 7.7 mph NE12.4 kmh NE 15.9 mph25.6 kmh 29.95 in1014.2 mb 0.00 in0.0 mm 0.00 in0.0 mm 0.00 in0.0 mm
01:40 PM 69.1°F20.6°C 51.8°F11.0°C 54% 7.6 mph NE12.2 kmh NE 17.4 mph28.0 kmh 29.94 in1013.9 mb 0.00 in0.0 mm 0.00 in0.0 mm 0.00 in0.0 mm
01:45 PM 69.4°F20.8°C 52.1°F11.2°C 54% 8.5 mph NNE13.7 kmh NNE 19.7 mph31.7 kmh 29.95 in1014.2 mb 0.00 in0.0 mm 0.00 in0.0 mm 0.00 in0.0 mm
01:50 PM 69.1°F20.6°C 52.3°F11.3°C 55% 8.6 mph N13.8 kmh N 19.7 mph31.7 kmh 29.94 in1013.9 mb 0.00 in0.0 mm 0.00 in0.0 mm 0.00 in0.0 mm
01:55 PM 68.9°F20.5°C 51.6°F10.9°C 54% 7.4 mph NNE11.9 kmh NNE 16.8 mph27.0 kmh 29.94 in1013.9 mb 0.00 in0.0 mm 0.00 in0.0 mm 0.00 in0.0 mm
02:00 PM 69.3°F20.7°C 52.4°F11.3°C 55% 7.3 mph NNE11.7 kmh NNE 16.8 mph27.0 kmh 29.94 in1013.9 mb 0.00 in0.0 mm 0.00 in0.0 mm 0.00 in0.0 mm
02:05 PM 69.6°F20.9°C 52.3°F11.3°C 54% 7.8 mph NE12.6 kmh NE 16.8 mph27.0 kmh 29.94 in1013.9 mb 0.00 in0.0 mm 0.00 in0.0 mm 0.00 in0.0 mm
02:10 PM 69.3°F20.7°C 51.9°F11.1°C 54% 8.0 mph NE12.9 kmh NE 21.3 mph34.3 kmh 29.94 in1013.9 mb 0.00 in0.0 mm 0.00 in0.0 mm 0.00 in0.0 mm
02:15 PM 69.4°F20.8°C 51.6°F10.9°C 53% 7.9 mph NE12.7 kmh NE 21.3 mph34.3 kmh 29.94 in1013.9 mb 0.00 in0.0 mm 0.00 in0.0 mm 0.00 in0.0 mm
02:20 PM 69.4°F20.8°C 51.6°F10.9°C 53% 7.7 mph N12.4 kmh N 22.1 mph35.6 kmh 29.94 in1013.9 mb 0.00 in0.0 mm 0.00 in0.0 mm 0.00 in0.0 mm
02:25 PM 69.6°F20.9°C 51.2°F10.7°C 52% 7.2 mph N11.6 kmh N 22.1 mph35.6 kmh 29.93 in1013.5 mb 0.00 in0.0 mm 0.00 in0.0 mm 0.00 in0.0 mm
02:30 PM 69.8°F21.0°C 51.4°F10.8°C 52% 7.4 mph NE11.9 kmh NE 22.8 mph36.7 kmh 29.93 in1013.5 mb 0.00 in0.0 mm 0.00 in0.0 mm 0.00 in0.0 mm
02:35 PM 69.6°F20.9°C 51.2°F10.7°C 52% 7.2 mph NNE11.6 kmh NNE 22.8 mph36.7 kmh 29.94 in1013.9 mb 0.00 in0.0 mm 0.00 in0.0 mm 0.00 in0.0 mm
02:40 PM 69.8°F21.0°C 51.4°F10.8°C 52% 6.0 mph N9.7 kmh N 22.8 mph36.7 kmh 29.94 in1013.9 mb 0.00 in0.0 mm 0.00 in0.0 mm 0.00 in0.0 mm
02:45 PM 69.8°F21.0°C 50.9°F10.5°C 51% 4.9 mph NNW7.9 kmh NNW 15.2 mph24.5 kmh 29.94 in1013.9 mb 0.00 in0.0 mm 0.00 in0.0 mm 0.00 in0.0 mm
02:50 PM 69.8°F21.0°C 50.9°F10.5°C 51% 6.3 mph N10.1 kmh N 23.5 mph37.8 kmh 29.94 in1013.9 mb 0.00 in0.0 mm 0.00 in0.0 mm 0.00 in0.0 mm
02:55 PM 69.6°F20.9°C 50.7°F10.4°C 51% 8.4 mph NNE13.5 kmh NNE 23.5 mph37.8 kmh 29.94 in1013.9 mb 0.00 in0.0 mm 0.00 in0.0 mm 0.00 in0.0 mm
03:00 PM 69.4°F20.8°C 50.5°F10.3°C 51% 8.8 mph NNE14.2 kmh NNE 21.3 mph34.3 kmh 29.94 in1013.9 mb 0.00 in0.0 mm 0.00 in0.0 mm 0.00 in0.0 mm
03:05 PM 69.3°F20.7°C 50.9°F10.5°C 52% 7.5 mph N12.1 kmh N 17.4 mph28.0 kmh 29.94 in1013.9 mb 0.00 in0.0 mm 0.00 in0.0 mm 0.00 in0.0 mm
03:10 PM 69.4°F20.8°C 51.1°F10.6°C 52% 6.4 mph N10.3 kmh N 17.4 mph28.0 kmh 29.94 in1013.9 mb 0.00 in0.0 mm 0.00 in0.0 mm 0.00 in0.0 mm
03:15 PM 69.3°F20.7°C 50.9°F10.5°C 52% 8.1 mph NNE13.0 kmh NNE 22.8 mph36.7 kmh 29.95 in1014.2 mb 0.00 in0.0 mm 0.00 in0.0 mm 0.00 in0.0 mm
03:20 PM 69.1°F20.6°C 50.2°F10.1°C 51% 8.9 mph NE14.3 kmh NE 22.8 mph36.7 kmh 29.95 in1014.2 mb 0.00 in0.0 mm 0.00 in0.0 mm 0.00 in0.0 mm
03:25 PM 69.1°F20.6°C 50.7°F10.4°C 52% 8.2 mph NE13.2 kmh NE 22.8 mph36.7 kmh 29.95 in1014.2 mb 0.00 in0.0 mm 0.00 in0.0 mm 0.00 in0.0 mm
03:30 PM 68.9°F20.5°C 50.1°F10.1°C 51% 8.7 mph NNE14.0 kmh NNE 19.0 mph30.6 kmh 29.95 in1014.2 mb 0.00 in0.0 mm 0.00 in0.0 mm 0.00 in0.0 mm
03:35 PM 69.1°F20.6°C 50.7°F10.4°C 52% 8.3 mph NNE13.4 kmh NNE 19.0 mph30.6 kmh 29.95 in1014.2 mb 0.00 in0.0 mm 0.00 in0.0 mm 0.00 in0.0 mm
03:40 PM 69.1°F20.6°C 50.7°F10.4°C 52% 7.5 mph N12.1 kmh N 21.3 mph34.3 kmh 29.95 in1014.2 mb 0.00 in0.0 mm 0.00 in0.0 mm 0.00 in0.0 mm
03:45 PM 69.1°F20.6°C 50.7°F10.4°C 52% 6.8 mph NE10.9 kmh NE 21.3 mph34.3 kmh 29.95 in1014.2 mb 0.00 in0.0 mm 0.00 in0.0 mm 0.00 in0.0 mm
03:50 PM 69.4°F20.8°C 51.1°F10.6°C 52% 6.7 mph NE10.8 kmh NE 16.8 mph27.0 kmh 29.95 in1014.2 mb 0.00 in0.0 mm 0.00 in0.0 mm 0.00 in0.0 mm
03:55 PM 69.3°F20.7°C 50.4°F10.2°C 51% 6.7 mph NNE10.8 kmh NNE 16.8 mph27.0 kmh 29.95 in1014.2 mb 0.00 in0.0 mm 0.00 in0.0 mm 0.00 in0.0 mm
04:00 PM 69.4°F20.8°C 50.5°F10.3°C 51% 6.4 mph N10.3 kmh N 15.2 mph24.5 kmh 29.95 in1014.2 mb 0.00 in0.0 mm 0.00 in0.0 mm 0.00 in0.0 mm
04:05 PM 69.4°F20.8°C 49.5°F9.7°C 49% 7.4 mph NNE11.9 kmh NNE 22.1 mph35.6 kmh 29.95 in1014.2 mb 0.00 in0.0 mm 0.00 in0.0 mm 0.00 in0.0 mm
04:10 PM 69.1°F20.6°C 49.1°F9.5°C 49% 9.2 mph NE14.8 kmh NE 22.1 mph35.6 kmh 29.96 in1014.6 mb 0.00 in0.0 mm 0.00 in0.0 mm 0.00 in0.0 mm
04:15 PM 69.1°F20.6°C 49.7°F9.8°C 50% 8.2 mph NE13.2 kmh NE 19.0 mph30.6 kmh 29.95 in1014.2 mb 0.00 in0.0 mm 0.00 in0.0 mm 0.00 in0.0 mm
04:20 PM 68.9°F20.5°C 49.5°F9.7°C 50% 5.2 mph NNE8.4 kmh NNE 15.9 mph25.6 kmh 29.95 in1014.2 mb 0.00 in0.0 mm 0.00 in0.0 mm 0.00 in0.0 mm
04:25 PM 68.7°F20.4°C 49.4°F9.7°C 50% 4.8 mph NNE7.7 kmh NNE 15.9 mph25.6 kmh 29.95 in1014.2 mb 0.00 in0.0 mm 0.00 in0.0 mm 0.00 in0.0 mm
04:30 PM 68.5°F20.3°C 49.7°F9.8°C 51% 5.0 mph NE8.0 kmh NE 16.8 mph27.0 kmh 29.95 in1014.2 mb 0.00 in0.0 mm 0.00 in0.0 mm 0.00 in0.0 mm
04:35 PM 68.4°F20.2°C 50.1°F10.1°C 52% 3.8 mph NE6.1 kmh NE 16.8 mph27.0 kmh 29.95 in1014.2 mb 0.00 in0.0 mm 0.00 in0.0 mm 0.00 in0.0 mm
04:40 PM 68.2°F20.1°C 50.4°F10.2°C 53% 4.5 mph NNE7.2 kmh NNE 19.7 mph31.7 kmh 29.95 in1014.2 mb 0.00 in0.0 mm 0.00 in0.0 mm 0.00 in0.0 mm
04:45 PM 68.0°F20.0°C 49.7°F9.8°C 52% 8.5 mph NE13.7 kmh NE 19.7 mph31.7 kmh 29.96 in1014.6 mb 0.00 in0.0 mm 0.00 in0.0 mm 0.00 in0.0 mm
04:50 PM 67.6°F19.8°C 49.4°F9.7°C 52% 8.5 mph N13.7 kmh N 18.3 mph29.5 kmh 29.96 in1014.6 mb 0.00 in0.0 mm 0.00 in0.0 mm 0.00 in0.0 mm
04:55 PM 67.3°F19.6°C 49.6°F9.8°C 53% 6.9 mph N11.1 kmh N 18.3 mph29.5 kmh 29.96 in1014.6 mb 0.00 in0.0 mm 0.00 in0.0 mm 0.00 in0.0 mm
05:00 PM 66.6°F19.2°C 49.4°F9.7°C 54% 6.6 mph NE10.6 kmh NE 18.3 mph29.5 kmh 29.96 in1014.6 mb 0.00 in0.0 mm 0.00 in0.0 mm 0.00 in0.0 mm
05:05 PM 66.2°F19.0°C 49.6°F9.8°C 55% 5.6 mph NE9.0 kmh NE 13.0 mph20.9 kmh 29.96 in1014.6 mb 0.00 in0.0 mm 0.00 in0.0 mm 0.00 in0.0 mm
05:10 PM 66.2°F19.0°C 50.1°F10.1°C 56% 6.3 mph NE10.1 kmh NE 15.2 mph24.5 kmh 29.96 in1014.6 mb 0.00 in0.0 mm 0.00 in0.0 mm 0.00 in0.0 mm
05:15 PM 66.0°F18.9°C 49.9°F9.9°C 56% 6.7 mph NE10.8 kmh NE 16.8 mph27.0 kmh 29.96 in1014.6 mb 0.00 in0.0 mm 0.00 in0.0 mm 0.00 in0.0 mm
05:20 PM 66.2°F19.0°C 50.1°F10.1°C 56% 7.5 mph NNE12.1 kmh NNE 17.4 mph28.0 kmh 29.96 in1014.6 mb 0.00 in0.0 mm 0.00 in0.0 mm 0.00 in0.0 mm
05:25 PM 66.4°F19.1°C 50.2°F10.1°C 56% 8.2 mph NE13.2 kmh NE 17.4 mph28.0 kmh 29.96 in1014.6 mb 0.00 in0.0 mm 0.00 in0.0 mm 0.00 in0.0 mm
05:30 PM 66.0°F18.9°C 49.9°F9.9°C 56% 8.2 mph NE13.2 kmh NE 19.7 mph31.7 kmh 29.96 in1014.6 mb 0.00 in0.0 mm 0.00 in0.0 mm 0.00 in0.0 mm
05:35 PM 65.8°F18.8°C 50.2°F10.1°C 57% 8.3 mph NE13.4 kmh NE 19.7 mph31.7 kmh 29.96 in1014.6 mb 0.00 in0.0 mm 0.00 in0.0 mm 0.00 in0.0 mm
05:40 PM 65.8°F18.8°C 50.2°F10.1°C 57% 8.5 mph NNE13.7 kmh NNE 19.7 mph31.7 kmh 29.96 in1014.6 mb 0.00 in0.0 mm 0.00 in0.0 mm 0.00 in0.0 mm
05:45 PM 65.7°F18.7°C 50.0°F10.0°C 57% 7.4 mph N11.9 kmh N 19.0 mph30.6 kmh 29.96 in1014.6 mb 0.00 in0.0 mm 0.00 in0.0 mm 0.00 in0.0 mm
05:50 PM 65.3°F18.5°C 50.6°F10.3°C 59% 6.5 mph NE10.5 kmh NE 14.5 mph23.3 kmh 29.96 in1014.6 mb 0.00 in0.0 mm 0.00 in0.0 mm 0.00 in0.0 mm
05:55 PM 64.8°F18.2°C 50.1°F10.1°C 59% 7.4 mph NNE11.9 kmh NNE 15.9 mph25.6 kmh 29.96 in1014.6 mb 0.00 in0.0 mm 0.00 in0.0 mm 0.00 in0.0 mm
06:00 PM 64.6°F18.1°C 50.4°F10.2°C 60% 7.5 mph NW12.1 kmh NW 15.9 mph25.6 kmh 29.97 in1014.9 mb 0.00 in0.0 mm 0.00 in0.0 mm 0.00 in0.0 mm
06:05 PM 64.0°F17.8°C 49.9°F9.9°C 60% 6.4 mph NW10.3 kmh NW 15.9 mph25.6 kmh 29.97 in1014.9 mb 0.00 in0.0 mm 0.00 in0.0 mm 0.00 in0.0 mm
06:10 PM 63.7°F17.6°C 49.6°F9.8°C 60% 5.3 mph NE8.5 kmh NE 13.6 mph21.9 kmh 29.97 in1014.9 mb 0.00 in0.0 mm 0.00 in0.0 mm 0.00 in0.0 mm
06:15 PM 63.1°F17.3°C 48.6°F9.2°C 59% 5.6 mph N9.0 kmh N 13.6 mph21.9 kmh 29.97 in1014.9 mb 0.00 in0.0 mm 0.00 in0.0 mm 0.00 in0.0 mm
06:20 PM 63.0°F17.2°C 48.4°F9.1°C 59% 5.9 mph NNE9.5 kmh NNE 12.1 mph19.5 kmh 29.98 in1015.2 mb 0.00 in0.0 mm 0.00 in0.0 mm 0.00 in0.0 mm
06:25 PM 62.6°F17.0°C 48.1°F8.9°C 59% 4.4 mph NE7.1 kmh NE 11.4 mph18.3 kmh 29.98 in1015.2 mb 0.00 in0.0 mm 0.00 in0.0 mm 0.00 in0.0 mm
06:30 PM 62.2°F16.8°C 47.7°F8.7°C 59% 4.5 mph NE7.2 kmh NE 10.7 mph17.2 kmh 29.98 in1015.2 mb 0.00 in0.0 mm 0.00 in0.0 mm 0.00 in0.0 mm
06:35 PM 61.9°F16.6°C 47.4°F8.6°C 59% 5.2 mph NE8.4 kmh NE 10.7 mph17.2 kmh 29.98 in1015.2 mb 0.00 in0.0 mm 0.00 in0.0 mm 0.00 in0.0 mm
06:40 PM 61.7°F16.5°C 47.7°F8.7°C 60% 4.6 mph NNE7.4 kmh NNE 10.7 mph17.2 kmh 29.98 in1015.2 mb 0.00 in0.0 mm 0.00 in0.0 mm 0.00 in0.0 mm
06:45 PM 61.3°F16.3°C 47.3°F8.5°C 60% 4.9 mph NE7.9 kmh NE 10.7 mph17.2 kmh 29.98 in1015.2 mb 0.00 in0.0 mm 0.00 in0.0 mm 0.00 in0.0 mm
06:50 PM 61.2°F16.2°C 47.6°F8.7°C 61% 5.4 mph NE8.7 kmh NE 10.7 mph17.2 kmh 29.99 in1015.6 mb 0.00 in0.0 mm 0.00 in0.0 mm 0.00 in0.0 mm
06:55 PM 60.6°F15.9°C 47.1°F8.4°C 61% 5.4 mph NE8.7 kmh NE 11.4 mph18.3 kmh 29.99 in1015.6 mb 0.00 in0.0 mm 0.00 in0.0 mm 0.00 in0.0 mm
07:00 PM 60.6°F15.9°C 47.1°F8.4°C 61% 5.6 mph NNE9.0 kmh NNE 11.4 mph18.3 kmh 30.00 in1015.9 mb 0.00 in0.0 mm 0.00 in0.0 mm 0.00 in0.0 mm
07:05 PM 60.4°F15.8°C 46.9°F8.3°C 61% 5.1 mph NE8.2 kmh NE 10.7 mph17.2 kmh 29.99 in1015.6 mb 0.00 in0.0 mm 0.00 in0.0 mm 0.00 in0.0 mm
07:10 PM 60.1°F15.6°C 46.6°F8.1°C 61% 4.9 mph NE7.9 kmh NE 12.1 mph19.5 kmh 29.99 in1015.6 mb 0.00 in0.0 mm 0.00 in0.0 mm 0.00 in0.0 mm
07:15 PM 59.9°F15.5°C 46.4°F8.0°C 61% 5.7 mph NE9.2 kmh NE 12.1 mph19.5 kmh 29.99 in1015.6 mb 0.00 in0.0 mm 0.00 in0.0 mm 0.00 in0.0 mm
07:20 PM 59.7°F15.4°C 46.3°F7.9°C 61% 6.7 mph NE10.8 kmh NE 13.0 mph20.9 kmh 30.00 in1015.9 mb 0.00 in0.0 mm 0.00 in0.0 mm 0.00 in0.0 mm
07:25 PM 59.5°F15.3°C 46.1°F7.8°C 61% 7.0 mph NE11.3 kmh NE 13.0 mph20.9 kmh 29.99 in1015.6 mb 0.00 in0.0 mm 0.00 in0.0 mm 0.00 in0.0 mm
07:30 PM 59.7°F15.4°C 46.3°F7.9°C 61% 6.9 mph NE11.1 kmh NE 12.1 mph19.5 kmh 30.00 in1015.9 mb 0.00 in0.0 mm 0.00 in0.0 mm 0.00 in0.0 mm
07:35 PM 59.7°F15.4°C 45.8°F7.7°C 60% 6.1 mph NE9.8 kmh NE 12.1 mph19.5 kmh 30.00 in1015.9 mb 0.00 in0.0 mm 0.00 in0.0 mm 0.00 in0.0 mm
07:40 PM 59.5°F15.3°C 45.7°F7.6°C 60% 5.3 mph NE8.5 kmh NE 12.1 mph19.5 kmh 30.00 in1015.9 mb 0.00 in0.0 mm 0.00 in0.0 mm 0.00 in0.0 mm
07:45 PM 59.7°F15.4°C 45.8°F7.7°C 60% 5.0 mph NNE8.0 kmh NNE 10.7 mph17.2 kmh 30.00 in1015.9 mb 0.00 in0.0 mm 0.00 in0.0 mm 0.00 in0.0 mm
07:50 PM 59.5°F15.3°C 45.2°F7.3°C 59% 4.9 mph NNE7.9 kmh NNE 9.8 mph15.8 kmh 30.00 in1015.9 mb 0.00 in0.0 mm 0.00 in0.0 mm 0.00 in0.0 mm
07:55 PM 59.4°F15.2°C 45.0°F7.2°C 59% 4.9 mph NE7.9 kmh NE 9.2 mph14.8 kmh 30.01 in1016.3 mb 0.00 in0.0 mm 0.00 in0.0 mm 0.00 in0.0 mm
08:00 PM 59.2°F15.1°C 44.9°F7.2°C 59% 4.0 mph NE6.4 kmh NE 8.3 mph13.4 kmh 30.01 in1016.3 mb 0.00 in0.0 mm 0.00 in0.0 mm 0.00 in0.0 mm
08:05 PM 58.8°F14.9°C 45.0°F7.2°C 60% 3.3 mph NNE5.3 kmh NNE 6.9 mph11.1 kmh 30.01 in1016.3 mb 0.00 in0.0 mm 0.00 in0.0 mm 0.00 in0.0 mm
08:10 PM 58.5°F14.7°C 44.6°F7.0°C 60% 3.3 mph NNE5.3 kmh NNE 8.3 mph13.4 kmh 30.01 in1016.3 mb 0.00 in0.0 mm 0.00 in0.0 mm 0.00 in0.0 mm
08:15 PM 58.3°F14.6°C 44.9°F7.2°C 61% 2.8 mph NE4.5 kmh NE 8.3 mph13.4 kmh 30.01 in1016.3 mb 0.00 in0.0 mm 0.00 in0.0 mm 0.00 in0.0 mm
08:20 PM 57.9°F14.4°C 44.6°F7.0°C 61% 1.5 mph NE2.4 kmh NE 6.9 mph11.1 kmh 30.02 in1016.6 mb 0.00 in0.0 mm 0.00 in0.0 mm 0.00 in0.0 mm
08:25 PM 57.4°F14.1°C 44.5°F6.9°C 62% 0.6 mph WSW1.0 kmh WSW 6.9 mph11.1 kmh 30.02 in1016.6 mb 0.00 in0.0 mm 0.00 in0.0 mm 0.00 in0.0 mm
08:30 PM 57.0°F13.9°C 44.1°F6.7°C 62% 1.3 mph WNW2.1 kmh WNW 6.0 mph9.7 kmh 30.02 in1016.6 mb 0.00 in0.0 mm 0.00 in0.0 mm 0.00 in0.0 mm
08:35 PM 56.7°F13.7°C 44.2°F6.8°C 63% 1.2 mph N1.9 kmh N 6.0 mph9.7 kmh 30.02 in1016.6 mb 0.00 in0.0 mm 0.00 in0.0 mm 0.00 in0.0 mm
08:40 PM 56.3°F13.5°C 43.9°F6.6°C 63% 0.4 mph NNE0.6 kmh NNE 3.1 mph5.0 kmh 30.02 in1016.6 mb 0.00 in0.0 mm 0.00 in0.0 mm 0.00 in0.0 mm
08:45 PM 56.3°F13.5°C 43.9°F6.6°C 63% 0.6 mph N1.0 kmh N 3.1 mph5.0 kmh 30.02 in1016.6 mb 0.00 in0.0 mm 0.00 in0.0 mm 0.00 in0.0 mm
08:50 PM 55.9°F13.3°C 43.9°F6.6°C 64% 0.8 mph NW1.3 kmh NW 5.4 mph8.7 kmh 30.02 in1016.6 mb 0.00 in0.0 mm 0.00 in0.0 mm 0.00 in0.0 mm
08:55 PM 55.8°F13.2°C 44.2°F6.8°C 65% 1.3 mph W2.1 kmh W 5.4 mph8.7 kmh 30.02 in1016.6 mb 0.00 in0.0 mm 0.00 in0.0 mm 0.00 in0.0 mm
09:00 PM 55.6°F13.1°C 44.4°F6.9°C 66% 1.7 mph WSW2.7 kmh WSW 6.0 mph9.7 kmh 30.02 in1016.6 mb 0.00 in0.0 mm 0.00 in0.0 mm 0.00 in0.0 mm
09:05 PM 55.4°F13.0°C 44.6°F7.0°C 67% 2.3 mph SW3.7 kmh SW 6.0 mph9.7 kmh 30.03 in1016.9 mb 0.00 in0.0 mm 0.00 in0.0 mm 0.00 in0.0 mm
09:10 PM 55.8°F13.2°C 45.0°F7.2°C 67% 1.7 mph WSW2.7 kmh WSW 6.0 mph9.7 kmh 30.03 in1016.9 mb 0.00 in0.0 mm 0.00 in0.0 mm 0.00 in0.0 mm
09:15 PM 55.4°F13.0°C 44.6°F7.0°C 67% 0.3 mph NW0.5 kmh NW 2.2 mph3.5 kmh 30.03 in1016.9 mb 0.00 in0.0 mm 0.00 in0.0 mm 0.00 in0.0 mm
09:20 PM 55.4°F13.0°C 44.6°F7.0°C 67% 0.4 mph WNW0.6 kmh WNW 3.1 mph5.0 kmh 30.03 in1016.9 mb 0.00 in0.0 mm 0.00 in0.0 mm 0.00 in0.0 mm
09:25 PM 55.2°F12.9°C 44.5°F6.9°C 67% 1.0 mph N1.6 kmh N 3.8 mph6.1 kmh 30.03 in1016.9 mb 0.00 in0.0 mm 0.00 in0.0 mm 0.00 in0.0 mm
09:30 PM 55.0°F12.8°C 44.3°F6.8°C 67% 0.6 mph NNE1.0 kmh NNE 3.8 mph6.1 kmh 30.03 in1016.9 mb 0.00 in0.0 mm 0.00 in0.0 mm 0.00 in0.0 mm
09:35 PM 55.0°F12.8°C 44.7°F7.1°C 68% Calm Calm 1.6 mph2.6 kmh 30.03 in1016.9 mb 0.00 in0.0 mm 0.00 in0.0 mm 0.00 in0.0 mm
09:40 PM 54.9°F12.7°C 44.5°F6.9°C 68% Calm Calm 1.6 mph2.6 kmh 30.03 in1016.9 mb 0.00 in0.0 mm 0.00 in0.0 mm 0.00 in0.0 mm
09:45 PM 54.7°F12.6°C 44.3°F6.8°C 68% 0.5 mph NNE0.8 kmh NNE 5.4 mph8.7 kmh 30.03 in1016.9 mb 0.00 in0.0 mm 0.00 in0.0 mm 0.00 in0.0 mm
09:50 PM 54.5°F12.5°C 44.2°F6.8°C 68% 1.3 mph N2.1 kmh N 5.4 mph8.7 kmh 30.03 in1016.9 mb 0.00 in0.0 mm 0.00 in0.0 mm 0.00 in0.0 mm
09:55 PM 54.3°F12.4°C 44.4°F6.9°C 69% 1.4 mph NNE2.3 kmh NNE 4.5 mph7.2 kmh 30.03 in1016.9 mb 0.00 in0.0 mm 0.00 in0.0 mm 0.00 in0.0 mm
10:00 PM 54.3°F12.4°C 44.4°F6.9°C 69% 0.8 mph NE1.3 kmh NE 3.1 mph5.0 kmh 30.02 in1016.6 mb 0.00 in0.0 mm 0.00 in0.0 mm 0.00 in0.0 mm
10:05 PM 54.1°F12.3°C 44.2°F6.8°C 69% 0.2 mph SE0.3 kmh SE 2.2 mph3.5 kmh 30.02 in1016.6 mb 0.00 in0.0 mm 0.00 in0.0 mm 0.00 in0.0 mm
10:10 PM 54.1°F12.3°C 44.2°F6.8°C 69% 0.6 mph NE1.0 kmh NE 4.5 mph7.2 kmh 30.03 in1016.9 mb 0.00 in0.0 mm 0.00 in0.0 mm 0.00 in0.0 mm
10:15 PM 54.0°F12.2°C 44.0°F6.7°C 69% 1.2 mph NE1.9 kmh NE 4.5 mph7.2 kmh 30.03 in1016.9 mb 0.00 in0.0 mm 0.00 in0.0 mm 0.00 in0.0 mm
10:20 PM 53.8°F12.1°C 43.9°F6.6°C 69% 0.9 mph E1.4 kmh E 3.8 mph6.1 kmh 30.03 in1016.9 mb 0.00 in0.0 mm 0.00 in0.0 mm 0.00 in0.0 mm
10:25 PM 53.6°F12.0°C 43.7°F6.5°C 69% 0.7 mph SW1.1 kmh SW 4.5 mph7.2 kmh 30.03 in1016.9 mb 0.00 in0.0 mm 0.00 in0.0 mm 0.00 in0.0 mm
10:30 PM 53.2°F11.8°C 43.7°F6.5°C 70% 1.3 mph SW2.1 kmh SW 4.5 mph7.2 kmh 30.03 in1016.9 mb 0.00 in0.0 mm 0.00 in0.0 mm 0.00 in0.0 mm
10:35 PM 53.4°F11.9°C 43.9°F6.6°C 70% 1.1 mph SW1.8 kmh SW 3.8 mph6.1 kmh 30.03 in1016.9 mb 0.00 in0.0 mm 0.00 in0.0 mm 0.00 in0.0 mm
10:40 PM 53.6°F12.0°C 44.1°F6.7°C 70% 0.7 mph SW1.1 kmh SW 3.8 mph6.1 kmh 30.02 in1016.6 mb 0.00 in0.0 mm 0.00 in0.0 mm 0.00 in0.0 mm
10:45 PM 53.4°F11.9°C 43.9°F6.6°C 70% 0.7 mph SW1.1 kmh SW 3.8 mph6.1 kmh 30.02 in1016.6 mb 0.00 in0.0 mm 0.00 in0.0 mm 0.00 in0.0 mm
10:50 PM 53.6°F12.0°C 43.7°F6.5°C 69% 0.3 mph WSW0.5 kmh WSW 3.1 mph5.0 kmh 30.02 in1016.6 mb 0.00 in0.0 mm 0.00 in0.0 mm 0.00 in0.0 mm
10:55 PM 53.8°F12.1°C 43.9°F6.6°C 69% 0.4 mph WSW0.6 kmh WSW 3.1 mph5.0 kmh 30.02 in1016.6 mb 0.00 in0.0 mm 0.00 in0.0 mm 0.00 in0.0 mm
11:00 PM 53.6°F12.0°C 43.7°F6.5°C 69% 1.3 mph WSW2.1 kmh WSW 4.5 mph7.2 kmh 30.02 in1016.6 mb 0.00 in0.0 mm 0.00 in0.0 mm 0.00 in0.0 mm
11:05 PM 53.8°F12.1°C 43.9°F6.6°C 69% 1.2 mph W1.9 kmh W 4.5 mph7.2 kmh 30.02 in1016.6 mb 0.00 in0.0 mm 0.00 in0.0 mm 0.00 in0.0 mm
11:10 PM 53.6°F12.0°C 43.7°F6.5°C 69% 0.3 mph N0.5 kmh N 3.1 mph5.0 kmh 30.02 in1016.6 mb 0.00 in0.0 mm 0.00 in0.0 mm 0.00 in0.0 mm
11:15 PM 53.8°F12.1°C 43.9°F6.6°C 69% 0.3 mph SW0.5 kmh SW 3.1 mph5.0 kmh 30.02 in1016.6 mb 0.00 in0.0 mm 0.00 in0.0 mm 0.00 in0.0 mm
11:20 PM 53.6°F12.0°C 43.7°F6.5°C 69% 1.1 mph SW1.8 kmh SW 6.0 mph9.7 kmh 30.02 in1016.6 mb 0.00 in0.0 mm 0.00 in0.0 mm 0.00 in0.0 mm
11:25 PM 53.6°F12.0°C 43.7°F6.5°C 69% 0.9 mph WSW1.4 kmh WSW 6.0 mph9.7 kmh 30.02 in1016.6 mb 0.00 in0.0 mm 0.00 in0.0 mm 0.00 in0.0 mm
11:30 PM 53.8°F12.1°C 43.9°F6.6°C 69% 0.1 mph W0.2 kmh W 3.1 mph5.0 kmh 30.03 in1016.9 mb 0.00 in0.0 mm 0.00 in0.0 mm 0.00 in0.0 mm
11:35 PM 54.0°F12.2°C 44.0°F6.7°C 69% 0.8 mph W1.3 kmh W 5.4 mph8.7 kmh 30.02 in1016.6 mb 0.00 in0.0 mm 0.00 in0.0 mm 0.00 in0.0 mm
11:40 PM 53.8°F12.1°C 43.5°F6.4°C 68% 1.7 mph W2.7 kmh W 5.4 mph8.7 kmh 30.02 in1016.6 mb 0.00 in0.0 mm 0.00 in0.0 mm 0.00 in0.0 mm
11:45 PM 53.6°F12.0°C 43.3°F6.3°C 68% 1.5 mph WNW2.4 kmh WNW 5.4 mph8.7 kmh 30.03 in1016.9 mb 0.00 in0.0 mm 0.00 in0.0 mm 0.00 in0.0 mm
11:50 PM 53.2°F11.8°C 43.0°F6.1°C 68% 1.6 mph W2.6 kmh W 4.5 mph7.2 kmh 30.03 in1016.9 mb 0.00 in0.0 mm 0.00 in0.0 mm 0.00 in0.0 mm
11:55 PM 53.4°F11.9°C 43.1°F6.2°C 68% 2.4 mph W3.9 kmh W 6.0 mph9.7 kmh 30.03 in1016.9 mb 0.00 in0.0 mm 0.00 in0.0 mm 0.00 in0.0 mm